DAL2316 KDTW-KBNA
Flight info
| Callsign | DAL2316 |
|---|---|
| Flight time | 1h 24m |
| Altitude | 38000 |
| Route | BARII3 SINKR JUDDI ULTRA RYYMN3 |
| Aircraft | A319/M-SDE3FGHIRWY/LB1 |
Departure
| Time | 2026-05-06 18:00 |
|---|---|
| Airport | Detroit Metropolitan Wayne County Airport (KDTW) |
Arrival
| Time | 2026-05-06 19:25 |
|---|---|
| Airport | Nashville International Airport (KBNA) |
| Time | Latitude | Longitude | Altitude | Speed | Heading |
|---|---|---|---|---|---|
| 2026-05-06 17:37 | 42.20535 | -83.35969 | 646 ft | 0 kts | 297° |
| 2026-05-06 17:49 | 42.20529 | -83.35953 | 648 ft | 4 kts | 297° |
| 2026-05-06 17:49 | 42.20520 | -83.35928 | 648 ft | 4 kts | 297° |
| 2026-05-06 17:49 | 42.20510 | -83.35904 | 648 ft | 2 kts | 297° |
| 2026-05-06 17:50 | 42.20510 | -83.35902 | 648 ft | 0 kts | 297° |
| 2026-05-06 17:51 | 42.20510 | -83.35903 | 648 ft | 0 kts | 297° |
| 2026-05-06 17:52 | 42.20508 | -83.35907 | 647 ft | 0 kts | 262° |
| 2026-05-06 17:52 | 42.20505 | -83.35908 | 648 ft | 1 kts | 223° |
| 2026-05-06 17:52 | 42.20479 | -83.35922 | 646 ft | 8 kts | 206° |
| 2026-05-06 17:52 | 42.20414 | -83.35969 | 647 ft | 11 kts | 208° |
| 2026-05-06 17:53 | 42.20346 | -83.36019 | 646 ft | 11 kts | 209° |
| 2026-05-06 17:53 | 42.20283 | -83.36065 | 646 ft | 8 kts | 208° |
| 2026-05-06 17:53 | 42.20251 | -83.36088 | 646 ft | 0 kts | 208° |
| 2026-05-06 17:55 | 42.20242 | -83.36095 | 647 ft | 4 kts | 208° |
| 2026-05-06 17:55 | 42.20181 | -83.36140 | 646 ft | 14 kts | 209° |
| 2026-05-06 17:55 | 42.20085 | -83.36147 | 646 ft | 14 kts | 147° |
| 2026-05-06 17:56 | 42.20069 | -83.36022 | 646 ft | 14 kts | 89° |
| 2026-05-06 17:56 | 42.20072 | -83.35866 | 646 ft | 20 kts | 89° |
| 2026-05-06 17:56 | 42.20075 | -83.35672 | 646 ft | 21 kts | 88° |
| 2026-05-06 17:56 | 42.20079 | -83.35483 | 647 ft | 20 kts | 88° |
| 2026-05-06 17:57 | 42.20083 | -83.35303 | 649 ft | 16 kts | 83° |
| 2026-05-06 17:57 | 42.20164 | -83.35212 | 648 ft | 16 kts | 28° |
| 2026-05-06 17:57 | 42.20261 | -83.35141 | 647 ft | 16 kts | 28° |
| 2026-05-06 17:57 | 42.20360 | -83.35068 | 647 ft | 16 kts | 29° |
| 2026-05-06 17:58 | 42.20462 | -83.35002 | 647 ft | 16 kts | 7° |
| 2026-05-06 17:58 | 42.20571 | -83.34993 | 648 ft | 16 kts | 27° |
| 2026-05-06 17:58 | 42.20668 | -83.34922 | 647 ft | 14 kts | 27° |
| 2026-05-06 17:58 | 42.20742 | -83.34977 | 647 ft | 14 kts | 298° |
| 2026-05-06 17:59 | 42.20786 | -83.35086 | 645 ft | 9 kts | 302° |
| 2026-05-06 17:59 | 42.20836 | -83.35084 | 644 ft | 0 kts | 29° |
| 2026-05-06 17:59 | 42.20839 | -83.35081 | 645 ft | 3 kts | 29° |
| 2026-05-06 18:00 | 42.21030 | -83.34942 | 645 ft | 68 kts | 28° |
| 2026-05-06 18:00 | 42.21644 | -83.34489 | 647 ft | 130 kts | 28° |
| 2026-05-06 18:00 | 42.22561 | -83.33814 | 886 ft | 155 kts | 24° |
| 2026-05-06 18:00 | 42.23493 | -83.33117 | 1573 ft | 153 kts | 24° |
| 2026-05-06 18:01 | 42.24353 | -83.32244 | 2195 ft | 159 kts | 45° |
| 2026-05-06 18:01 | 42.24952 | -83.30912 | 2652 ft | 176 kts | 59° |
| 2026-05-06 18:01 | 42.25551 | -83.29347 | 2989 ft | 199 kts | 59° |
| 2026-05-06 18:01 | 42.26224 | -83.27587 | 3354 ft | 224 kts | 60° |
| 2026-05-06 18:02 | 42.26975 | -83.25622 | 3862 ft | 243 kts | 60° |
| 2026-05-06 18:02 | 42.27670 | -83.23501 | 4677 ft | 254 kts | 75° |
| 2026-05-06 18:02 | 42.27639 | -83.21090 | 5409 ft | 270 kts | 106° |
| 2026-05-06 18:02 | 42.26736 | -83.18807 | 6116 ft | 281 kts | 123° |
| 2026-05-06 18:03 | 42.25684 | -83.16555 | 6980 ft | 286 kts | 123° |
| 2026-05-06 18:03 | 42.24632 | -83.14242 | 7838 ft | 292 kts | 124° |
| 2026-05-06 18:03 | 42.23547 | -83.11895 | 8676 ft | 297 kts | 129° |
| 2026-05-06 18:03 | 42.22032 | -83.10034 | 9480 ft | 294 kts | 156° |
| 2026-05-06 18:04 | 42.20126 | -83.09199 | 10268 ft | 286 kts | 181° |
| 2026-05-06 18:04 | 42.18192 | -83.09451 | 11039 ft | 276 kts | 204° |
| 2026-05-06 18:04 | 42.16400 | -83.10475 | 11458 ft | 291 kts | 210° |
| 2026-05-06 18:04 | 42.14520 | -83.11673 | 11900 ft | 304 kts | 211° |
| 2026-05-06 18:05 | 42.12589 | -83.12913 | 12631 ft | 309 kts | 210° |
| 2026-05-06 18:05 | 42.10644 | -83.14152 | 13415 ft | 311 kts | 210° |
| 2026-05-06 18:05 | 42.08676 | -83.15395 | 14151 ft | 313 kts | 210° |
| 2026-05-06 18:05 | 42.06697 | -83.16641 | 14891 ft | 315 kts | 210° |
| 2026-05-06 18:06 | 42.04709 | -83.17887 | 15612 ft | 316 kts | 211° |
| 2026-05-06 18:06 | 42.02715 | -83.19135 | 16341 ft | 316 kts | 211° |
| 2026-05-06 18:06 | 42.00716 | -83.20382 | 17071 ft | 317 kts | 211° |
| 2026-05-06 18:06 | 41.98825 | -83.21856 | 17748 ft | 313 kts | 220° |
| 2026-05-06 18:07 | 41.97188 | -83.23761 | 18412 ft | 311 kts | 228° |
| 2026-05-06 18:07 | 41.95650 | -83.25821 | 19013 ft | 313 kts | 228° |
| 2026-05-06 18:07 | 41.94100 | -83.27884 | 19588 ft | 315 kts | 228° |
| 2026-05-06 18:07 | 41.92535 | -83.29965 | 20164 ft | 318 kts | 229° |
| 2026-05-06 18:08 | 41.90959 | -83.32058 | 20723 ft | 320 kts | 229° |
| 2026-05-06 18:08 | 41.89367 | -83.34167 | 21308 ft | 323 kts | 229° |
| 2026-05-06 18:08 | 41.87763 | -83.36289 | 21887 ft | 325 kts | 229° |
| 2026-05-06 18:08 | 41.86145 | -83.38429 | 22446 ft | 328 kts | 229° |
| 2026-05-06 18:09 | 41.84484 | -83.40628 | 22585 ft | 342 kts | 229° |
| 2026-05-06 18:09 | 41.82758 | -83.42913 | 22773 ft | 354 kts | 229° |
| 2026-05-06 18:09 | 41.80989 | -83.45254 | 23163 ft | 359 kts | 229° |
| 2026-05-06 18:09 | 41.79198 | -83.47614 | 23604 ft | 363 kts | 230° |
| 2026-05-06 18:10 | 41.77391 | -83.49988 | 24064 ft | 364 kts | 230° |
| 2026-05-06 18:10 | 41.75581 | -83.52359 | 24511 ft | 364 kts | 230° |
| 2026-05-06 18:10 | 41.73769 | -83.54728 | 24974 ft | 364 kts | 230° |
| 2026-05-06 18:10 | 41.71951 | -83.57097 | 25411 ft | 365 kts | 229° |
| 2026-05-06 18:11 | 41.69940 | -83.59229 | 25838 ft | 374 kts | 221° |
| 2026-05-06 18:11 | 41.68403 | -83.60410 | 26120 ft | 380 kts | 216° |
| 2026-05-06 18:11 | 41.65257 | -83.62485 | 26653 ft | 382 kts | 216° |
| 2026-05-06 18:11 | 41.62871 | -83.64052 | 27047 ft | 382 kts | 216° |
| 2026-05-06 18:12 | 41.60478 | -83.65625 | 27431 ft | 383 kts | 216° |
| 2026-05-06 18:12 | 41.58087 | -83.67198 | 27778 ft | 383 kts | 217° |
| 2026-05-06 18:12 | 41.55697 | -83.68772 | 28183 ft | 383 kts | 217° |
| 2026-05-06 18:12 | 41.53303 | -83.70347 | 28556 ft | 383 kts | 218° |
| 2026-05-06 18:13 | 41.50912 | -83.71919 | 28905 ft | 384 kts | 218° |
| 2026-05-06 18:13 | 41.48511 | -83.73498 | 29239 ft | 385 kts | 218° |
| 2026-05-06 18:13 | 41.46118 | -83.75070 | 29699 ft | 382 kts | 218° |
| 2026-05-06 18:13 | 41.44509 | -83.76125 | 30049 ft | 380 kts | 219° |
| 2026-05-06 18:14 | 41.42139 | -83.77675 | 30478 ft | 378 kts | 219° |
| 2026-05-06 18:14 | 41.39791 | -83.79209 | 30876 ft | 376 kts | 219° |
| 2026-05-06 18:14 | 41.37442 | -83.80741 | 31181 ft | 374 kts | 220° |
| 2026-05-06 18:14 | 41.35116 | -83.82258 | 31583 ft | 372 kts | 220° |
| 2026-05-06 18:15 | 41.32795 | -83.83773 | 31962 ft | 370 kts | 220° |
| 2026-05-06 18:15 | 41.30488 | -83.85282 | 32351 ft | 368 kts | 220° |
| 2026-05-06 18:15 | 41.28193 | -83.86784 | 32733 ft | 367 kts | 220° |
| 2026-05-06 18:15 | 41.25908 | -83.88278 | 33112 ft | 365 kts | 221° |
| 2026-05-06 18:16 | 41.23630 | -83.89766 | 33485 ft | 364 kts | 221° |
| 2026-05-06 18:16 | 41.21358 | -83.91247 | 33900 ft | 363 kts | 221° |
| 2026-05-06 18:16 | 41.19090 | -83.92719 | 34254 ft | 361 kts | 221° |
| 2026-05-06 18:16 | 41.16834 | -83.94184 | 34516 ft | 360 kts | 221° |
| 2026-05-06 18:17 | 41.14582 | -83.95646 | 34800 ft | 360 kts | 221° |
| 2026-05-06 18:17 | 41.12335 | -83.97109 | 35060 ft | 360 kts | 221° |
| 2026-05-06 18:17 | 41.10086 | -83.98570 | 35308 ft | 360 kts | 221° |
| 2026-05-06 18:17 | 41.07862 | -84.00013 | 35544 ft | 360 kts | 221° |
| 2026-05-06 18:18 | 41.05608 | -84.01469 | 35781 ft | 361 kts | 221° |
| 2026-05-06 18:18 | 41.03349 | -84.02925 | 36013 ft | 361 kts | 221° |
| 2026-05-06 18:18 | 41.01090 | -84.04382 | 36243 ft | 361 kts | 221° |
| 2026-05-06 18:18 | 40.98800 | -84.05858 | 36475 ft | 361 kts | 221° |
| 2026-05-06 18:19 | 40.96570 | -84.07299 | 36642 ft | 361 kts | 221° |
| 2026-05-06 18:19 | 40.94312 | -84.08758 | 36868 ft | 361 kts | 221° |
| 2026-05-06 18:19 | 40.92056 | -84.10216 | 37090 ft | 361 kts | 221° |
| 2026-05-06 18:19 | 40.89770 | -84.11690 | 37303 ft | 361 kts | 221° |
| 2026-05-06 18:20 | 40.87534 | -84.13114 | 37501 ft | 362 kts | 220° |
| 2026-05-06 18:20 | 40.85212 | -84.14538 | 37715 ft | 364 kts | 220° |
| 2026-05-06 18:20 | 40.82907 | -84.15918 | 37921 ft | 364 kts | 220° |
| 2026-05-06 18:20 | 40.80594 | -84.17296 | 38008 ft | 366 kts | 220° |
| 2026-05-06 18:21 | 40.75945 | -84.20071 | 37964 ft | 367 kts | 220° |
| 2026-05-06 18:21 | 40.71295 | -84.22855 | 38009 ft | 367 kts | 220° |
| 2026-05-06 18:22 | 40.66651 | -84.25638 | 38015 ft | 367 kts | 220° |
| 2026-05-06 18:22 | 40.62013 | -84.28422 | 38016 ft | 366 kts | 220° |
| 2026-05-06 18:23 | 40.57368 | -84.31203 | 38034 ft | 367 kts | 220° |
| 2026-05-06 18:23 | 40.52724 | -84.33982 | 38031 ft | 366 kts | 220° |
| 2026-05-06 18:24 | 40.48086 | -84.36752 | 38028 ft | 366 kts | 220° |
| 2026-05-06 18:24 | 40.45826 | -84.38228 | 38021 ft | 355 kts | 226° |
| 2026-05-06 18:24 | 40.43875 | -84.40088 | 38020 ft | 340 kts | 234° |
| 2026-05-06 18:25 | 40.40495 | -84.44333 | 38020 ft | 336 kts | 236° |
| 2026-05-06 18:25 | 40.37113 | -84.48587 | 38020 ft | 337 kts | 235° |
| 2026-05-06 18:26 | 40.33726 | -84.52835 | 37969 ft | 337 kts | 236° |
| 2026-05-06 18:26 | 40.30340 | -84.57074 | 37988 ft | 336 kts | 236° |
| 2026-05-06 18:27 | 40.26953 | -84.61302 | 37999 ft | 337 kts | 236° |
| 2026-05-06 18:27 | 40.23563 | -84.65530 | 38013 ft | 337 kts | 235° |
| 2026-05-06 18:28 | 40.20168 | -84.69755 | 38043 ft | 337 kts | 235° |
| 2026-05-06 18:28 | 40.16773 | -84.73972 | 38034 ft | 337 kts | 235° |
| 2026-05-06 18:29 | 40.13382 | -84.78194 | 37963 ft | 337 kts | 235° |
| 2026-05-06 18:29 | 40.09996 | -84.82394 | 37984 ft | 335 kts | 236° |
| 2026-05-06 18:30 | 40.06614 | -84.86586 | 38004 ft | 335 kts | 236° |
| 2026-05-06 18:30 | 40.03232 | -84.90770 | 38013 ft | 335 kts | 235° |
| 2026-05-06 18:31 | 39.99844 | -84.94947 | 38019 ft | 335 kts | 235° |
| 2026-05-06 18:31 | 39.96460 | -84.99119 | 38023 ft | 335 kts | 235° |
| 2026-05-06 18:32 | 39.93074 | -85.03291 | 38026 ft | 335 kts | 235° |
| 2026-05-06 18:32 | 39.89687 | -85.07454 | 38017 ft | 334 kts | 235° |
| 2026-05-06 18:33 | 39.86303 | -85.11601 | 38026 ft | 334 kts | 235° |
| 2026-05-06 18:33 | 39.82931 | -85.15747 | 38032 ft | 333 kts | 235° |
| 2026-05-06 18:34 | 39.79559 | -85.19886 | 38033 ft | 334 kts | 235° |
| 2026-05-06 18:34 | 39.76171 | -85.24023 | 38036 ft | 334 kts | 235° |
| 2026-05-06 18:35 | 39.72789 | -85.28153 | 38040 ft | 334 kts | 235° |
| 2026-05-06 18:35 | 39.69408 | -85.32283 | 37990 ft | 333 kts | 235° |
| 2026-05-06 18:36 | 39.66028 | -85.36396 | 38011 ft | 333 kts | 235° |
| 2026-05-06 18:36 | 39.62648 | -85.40500 | 38022 ft | 333 kts | 235° |
| 2026-05-06 18:37 | 39.59835 | -85.43908 | 38068 ft | 333 kts | 235° |
| 2026-05-06 18:37 | 39.55887 | -85.48695 | 38060 ft | 332 kts | 235° |
| 2026-05-06 18:38 | 39.52518 | -85.52778 | 38052 ft | 332 kts | 235° |
| 2026-05-06 18:38 | 39.49143 | -85.56849 | 37971 ft | 331 kts | 235° |
| 2026-05-06 18:39 | 39.45776 | -85.60914 | 38016 ft | 331 kts | 235° |
| 2026-05-06 18:40 | 39.40726 | -85.67002 | 38029 ft | 330 kts | 235° |
| 2026-05-06 18:40 | 39.37365 | -85.71055 | 38044 ft | 331 kts | 235° |
| 2026-05-06 18:41 | 39.33998 | -85.75098 | 38051 ft | 330 kts | 235° |
| 2026-05-06 18:41 | 39.30632 | -85.79141 | 38056 ft | 330 kts | 235° |
| 2026-05-06 18:42 | 39.27264 | -85.83179 | 38022 ft | 330 kts | 235° |
| 2026-05-06 18:42 | 39.23896 | -85.87213 | 38036 ft | 330 kts | 235° |
| 2026-05-06 18:43 | 39.20530 | -85.91239 | 38042 ft | 330 kts | 235° |
| 2026-05-06 18:43 | 39.17161 | -85.95261 | 38050 ft | 330 kts | 235° |
| 2026-05-06 18:44 | 39.13786 | -85.99283 | 38049 ft | 331 kts | 235° |
| 2026-05-06 18:44 | 39.10408 | -86.03301 | 38050 ft | 330 kts | 235° |
| 2026-05-06 18:45 | 39.07033 | -86.07311 | 38044 ft | 330 kts | 235° |
| 2026-05-06 18:45 | 39.03657 | -86.11313 | 38015 ft | 331 kts | 235° |
| 2026-05-06 18:46 | 39.00263 | -86.15342 | 38030 ft | 332 kts | 235° |
| 2026-05-06 18:46 | 38.96871 | -86.19354 | 38069 ft | 332 kts | 234° |
| 2026-05-06 18:47 | 38.93479 | -86.23359 | 38062 ft | 331 kts | 234° |
| 2026-05-06 18:47 | 38.90094 | -86.27354 | 38069 ft | 330 kts | 234° |
| 2026-05-06 18:48 | 38.86716 | -86.31334 | 38068 ft | 329 kts | 234° |
| 2026-05-06 18:48 | 38.83345 | -86.35302 | 38013 ft | 329 kts | 234° |
| 2026-05-06 18:49 | 38.79970 | -86.39270 | 38024 ft | 329 kts | 235° |
| 2026-05-06 18:49 | 38.77133 | -86.42588 | 38034 ft | 332 kts | 233° |
| 2026-05-06 18:49 | 38.74449 | -86.44721 | 38039 ft | 360 kts | 218° |
| 2026-05-06 18:50 | 38.72068 | -86.45856 | 37852 ft | 367 kts | 217° |
| 2026-05-06 18:50 | 38.69664 | -86.46962 | 37477 ft | 366 kts | 217° |
| 2026-05-06 18:50 | 38.67268 | -86.48054 | 37110 ft | 366 kts | 216° |
| 2026-05-06 18:50 | 38.65651 | -86.48792 | 36868 ft | 365 kts | 216° |
| 2026-05-06 18:51 | 38.62480 | -86.50243 | 36408 ft | 365 kts | 216° |
| 2026-05-06 18:51 | 38.60867 | -86.50986 | 36175 ft | 365 kts | 216° |
| 2026-05-06 18:51 | 38.58477 | -86.52095 | 35764 ft | 366 kts | 216° |
| 2026-05-06 18:51 | 38.55309 | -86.53567 | 35327 ft | 366 kts | 216° |
| 2026-05-06 18:52 | 38.53689 | -86.54316 | 35102 ft | 366 kts | 216° |
| 2026-05-06 18:52 | 38.51291 | -86.55418 | 34770 ft | 366 kts | 216° |
| 2026-05-06 18:52 | 38.48896 | -86.56518 | 34435 ft | 366 kts | 215° |
| 2026-05-06 18:52 | 38.46497 | -86.57618 | 34151 ft | 365 kts | 215° |
| 2026-05-06 18:53 | 38.44109 | -86.58711 | 33792 ft | 365 kts | 215° |
| 2026-05-06 18:53 | 38.41725 | -86.59811 | 33413 ft | 366 kts | 215° |
| 2026-05-06 18:53 | 38.39325 | -86.60923 | 33056 ft | 368 kts | 215° |
| 2026-05-06 18:53 | 38.36912 | -86.62045 | 32694 ft | 370 kts | 214° |
| 2026-05-06 18:54 | 38.34481 | -86.63167 | 32339 ft | 373 kts | 214° |
| 2026-05-06 18:54 | 38.32032 | -86.64291 | 31989 ft | 375 kts | 214° |
| 2026-05-06 18:54 | 38.29572 | -86.65414 | 31639 ft | 378 kts | 214° |
| 2026-05-06 18:54 | 38.27087 | -86.66548 | 31292 ft | 380 kts | 213° |
| 2026-05-06 18:55 | 38.24588 | -86.67689 | 30963 ft | 383 kts | 213° |
| 2026-05-06 18:55 | 38.22073 | -86.68838 | 30629 ft | 386 kts | 213° |
| 2026-05-06 18:55 | 38.19540 | -86.69994 | 30296 ft | 388 kts | 213° |
| 2026-05-06 18:55 | 38.16986 | -86.71156 | 29946 ft | 390 kts | 212° |
| 2026-05-06 18:56 | 38.14423 | -86.72322 | 29490 ft | 392 kts | 212° |
| 2026-05-06 18:56 | 38.11839 | -86.73498 | 29097 ft | 395 kts | 212° |
| 2026-05-06 18:56 | 38.09247 | -86.74680 | 28726 ft | 398 kts | 212° |
| 2026-05-06 18:56 | 38.06632 | -86.75871 | 28355 ft | 399 kts | 211° |
| 2026-05-06 18:57 | 38.04011 | -86.77060 | 27990 ft | 401 kts | 211° |
| 2026-05-06 18:57 | 38.01378 | -86.78255 | 27624 ft | 402 kts | 211° |
| 2026-05-06 18:57 | 37.98750 | -86.79447 | 27269 ft | 401 kts | 211° |
| 2026-05-06 18:57 | 37.96120 | -86.80636 | 26924 ft | 400 kts | 210° |
| 2026-05-06 18:58 | 37.93516 | -86.81812 | 26570 ft | 397 kts | 210° |
| 2026-05-06 18:58 | 37.90917 | -86.82984 | 26188 ft | 395 kts | 210° |
| 2026-05-06 18:58 | 37.88332 | -86.84151 | 25849 ft | 393 kts | 210° |
| 2026-05-06 18:58 | 37.85761 | -86.85315 | 25507 ft | 391 kts | 210° |
| 2026-05-06 18:59 | 37.83205 | -86.86472 | 25178 ft | 389 kts | 210° |
| 2026-05-06 18:59 | 37.80659 | -86.87623 | 24852 ft | 387 kts | 210° |
| 2026-05-06 18:59 | 37.78126 | -86.88769 | 24528 ft | 385 kts | 210° |
| 2026-05-06 18:59 | 37.75608 | -86.89907 | 24207 ft | 383 kts | 209° |
| 2026-05-06 19:00 | 37.73104 | -86.91036 | 23885 ft | 382 kts | 209° |
| 2026-05-06 19:00 | 37.70607 | -86.92161 | 23566 ft | 380 kts | 209° |
| 2026-05-06 19:00 | 37.68124 | -86.93277 | 23193 ft | 379 kts | 209° |
| 2026-05-06 19:00 | 37.65641 | -86.94392 | 23019 ft | 379 kts | 209° |
| 2026-05-06 19:01 | 37.63152 | -86.95515 | 23058 ft | 381 kts | 209° |
| 2026-05-06 19:01 | 37.60652 | -86.96641 | 23047 ft | 381 kts | 209° |
| 2026-05-06 19:01 | 37.58159 | -86.97759 | 23049 ft | 381 kts | 209° |
| 2026-05-06 19:01 | 37.55656 | -86.98880 | 23048 ft | 381 kts | 209° |
| 2026-05-06 19:02 | 37.53155 | -86.99999 | 23048 ft | 381 kts | 209° |
| 2026-05-06 19:02 | 37.50659 | -87.01116 | 23047 ft | 381 kts | 209° |
| 2026-05-06 19:02 | 37.48158 | -87.02234 | 23042 ft | 381 kts | 209° |
| 2026-05-06 19:02 | 37.45656 | -87.03355 | 22900 ft | 381 kts | 209° |
| 2026-05-06 19:03 | 37.43160 | -87.04472 | 22591 ft | 380 kts | 209° |
| 2026-05-06 19:03 | 37.40672 | -87.05584 | 22327 ft | 379 kts | 209° |
| 2026-05-06 19:03 | 37.38191 | -87.06687 | 22066 ft | 378 kts | 209° |
| 2026-05-06 19:03 | 37.35641 | -87.07590 | 21810 ft | 386 kts | 201° |
| 2026-05-06 19:04 | 37.32930 | -87.07957 | 21556 ft | 397 kts | 193° |
| 2026-05-06 19:04 | 37.30166 | -87.08058 | 21301 ft | 397 kts | 193° |
| 2026-05-06 19:04 | 37.27414 | -87.08153 | 21048 ft | 395 kts | 193° |
| 2026-05-06 19:04 | 37.24666 | -87.08247 | 20798 ft | 394 kts | 193° |
| 2026-05-06 19:05 | 37.21934 | -87.08343 | 20556 ft | 393 kts | 193° |
| 2026-05-06 19:05 | 37.19208 | -87.08441 | 20275 ft | 391 kts | 193° |
| 2026-05-06 19:05 | 37.16490 | -87.08541 | 20034 ft | 390 kts | 193° |
| 2026-05-06 19:05 | 37.13782 | -87.08643 | 19798 ft | 388 kts | 193° |
| 2026-05-06 19:06 | 37.11089 | -87.08746 | 19561 ft | 387 kts | 193° |
| 2026-05-06 19:06 | 37.08402 | -87.08849 | 19319 ft | 385 kts | 193° |
| 2026-05-06 19:06 | 37.05726 | -87.08949 | 19087 ft | 385 kts | 193° |
| 2026-05-06 19:06 | 37.03059 | -87.09051 | 18855 ft | 383 kts | 193° |
| 2026-05-06 19:07 | 37.00400 | -87.09150 | 18623 ft | 381 kts | 193° |
| 2026-05-06 19:07 | 36.97750 | -87.09248 | 18404 ft | 381 kts | 193° |
| 2026-05-06 19:07 | 36.95104 | -87.09344 | 18103 ft | 380 kts | 193° |
| 2026-05-06 19:07 | 36.92460 | -87.09442 | 17839 ft | 381 kts | 193° |
| 2026-05-06 19:08 | 36.89814 | -87.09538 | 17577 ft | 376 kts | 192° |
| 2026-05-06 19:08 | 36.87238 | -87.09618 | 17318 ft | 365 kts | 192° |
| 2026-05-06 19:08 | 36.84739 | -87.09691 | 17063 ft | 354 kts | 192° |
| 2026-05-06 19:08 | 36.82242 | -87.09449 | 16804 ft | 358 kts | 181° |
| 2026-05-06 19:09 | 36.79827 | -87.08591 | 16562 ft | 367 kts | 169° |
| 2026-05-06 19:09 | 36.77492 | -87.07212 | 16319 ft | 372 kts | 165° |
| 2026-05-06 19:09 | 36.75173 | -87.05785 | 16066 ft | 371 kts | 165° |
| 2026-05-06 19:09 | 36.72859 | -87.04365 | 15820 ft | 370 kts | 165° |
| 2026-05-06 19:10 | 36.70583 | -87.02972 | 15560 ft | 369 kts | 164° |
| 2026-05-06 19:10 | 36.68260 | -87.01551 | 15314 ft | 366 kts | 164° |
| 2026-05-06 19:10 | 36.66013 | -87.00174 | 15080 ft | 364 kts | 164° |
| 2026-05-06 19:10 | 36.63715 | -86.98767 | 14839 ft | 363 kts | 164° |
| 2026-05-06 19:11 | 36.61449 | -86.97385 | 14606 ft | 362 kts | 164° |
| 2026-05-06 19:11 | 36.59195 | -86.96012 | 14373 ft | 361 kts | 163° |
| 2026-05-06 19:11 | 36.56937 | -86.94636 | 14126 ft | 360 kts | 163° |
| 2026-05-06 19:11 | 36.54691 | -86.93269 | 13896 ft | 359 kts | 163° |
| 2026-05-06 19:12 | 36.52457 | -86.91908 | 13639 ft | 357 kts | 163° |
| 2026-05-06 19:12 | 36.50229 | -86.90554 | 13353 ft | 356 kts | 163° |
| 2026-05-06 19:12 | 36.48009 | -86.89210 | 12964 ft | 354 kts | 163° |
| 2026-05-06 19:12 | 36.45803 | -86.87871 | 12547 ft | 352 kts | 162° |
| 2026-05-06 19:13 | 36.43611 | -86.86539 | 12181 ft | 349 kts | 162° |
| 2026-05-06 19:13 | 36.41441 | -86.85223 | 11803 ft | 347 kts | 162° |
| 2026-05-06 19:13 | 36.39281 | -86.83914 | 11473 ft | 342 kts | 162° |
| 2026-05-06 19:13 | 36.37175 | -86.82633 | 11352 ft | 333 kts | 161° |
| 2026-05-06 19:14 | 36.35100 | -86.81380 | 11223 ft | 329 kts | 162° |
| 2026-05-06 19:14 | 36.33074 | -86.80148 | 11040 ft | 321 kts | 162° |
| 2026-05-06 19:14 | 36.31092 | -86.78944 | 10796 ft | 314 kts | 162° |
| 2026-05-06 19:14 | 36.29142 | -86.77766 | 10514 ft | 310 kts | 162° |
| 2026-05-06 19:15 | 36.27199 | -86.76599 | 10228 ft | 306 kts | 162° |
| 2026-05-06 19:15 | 36.25264 | -86.75722 | 10107 ft | 286 kts | 176° |
| 2026-05-06 19:15 | 36.23354 | -86.75474 | 9918 ft | 269 kts | 190° |
| 2026-05-06 19:15 | 36.21545 | -86.75766 | 9545 ft | 260 kts | 203° |
| 2026-05-06 19:16 | 36.19842 | -86.76416 | 9252 ft | 254 kts | 205° |
| 2026-05-06 19:16 | 36.18168 | -86.77047 | 8958 ft | 248 kts | 204° |
| 2026-05-06 19:16 | 36.16560 | -86.77633 | 8825 ft | 234 kts | 204° |
| 2026-05-06 19:16 | 36.14997 | -86.78206 | 8335 ft | 235 kts | 204° |
| 2026-05-06 19:17 | 36.13455 | -86.78777 | 8096 ft | 226 kts | 204° |
| 2026-05-06 19:17 | 36.11964 | -86.79336 | 7849 ft | 225 kts | 205° |
| 2026-05-06 19:17 | 36.10484 | -86.79911 | 7539 ft | 222 kts | 205° |
| 2026-05-06 19:17 | 36.09019 | -86.80486 | 7249 ft | 220 kts | 205° |
| 2026-05-06 19:18 | 36.07577 | -86.81054 | 6972 ft | 216 kts | 205° |
| 2026-05-06 19:18 | 36.06146 | -86.81616 | 6695 ft | 215 kts | 205° |
| 2026-05-06 19:18 | 36.04729 | -86.82171 | 6412 ft | 213 kts | 205° |
| 2026-05-06 19:18 | 36.03319 | -86.82724 | 6129 ft | 212 kts | 205° |
| 2026-05-06 19:19 | 36.01919 | -86.83273 | 5860 ft | 211 kts | 204° |
| 2026-05-06 19:19 | 36.00507 | -86.83773 | 5585 ft | 214 kts | 196° |
| 2026-05-06 19:19 | 35.98992 | -86.83751 | 5307 ft | 225 kts | 176° |
| 2026-05-06 19:19 | 35.97516 | -86.83005 | 5016 ft | 236 kts | 152° |
| 2026-05-06 19:20 | 35.96345 | -86.81555 | 4696 ft | 244 kts | 127° |
| 2026-05-06 19:20 | 35.95719 | -86.79596 | 4382 ft | 249 kts | 101° |
| 2026-05-06 19:20 | 35.95783 | -86.77475 | 4058 ft | 249 kts | 74° |
| 2026-05-06 19:20 | 35.96528 | -86.75577 | 3754 ft | 246 kts | 49° |
| 2026-05-06 19:21 | 35.97796 | -86.74233 | 3440 ft | 236 kts | 25° |
| 2026-05-06 19:21 | 35.99278 | -86.73547 | 3145 ft | 222 kts | 13° |
| 2026-05-06 19:21 | 36.00723 | -86.72985 | 2863 ft | 212 kts | 13° |
| 2026-05-06 19:21 | 36.02078 | -86.72453 | 2647 ft | 195 kts | 14° |
| 2026-05-06 19:22 | 36.03322 | -86.71961 | 2374 ft | 180 kts | 14° |
| 2026-05-06 19:22 | 36.04450 | -86.71513 | 2147 ft | 158 kts | 14° |
| 2026-05-06 19:22 | 36.05442 | -86.71120 | 1939 ft | 143 kts | 14° |
| 2026-05-06 19:22 | 36.06362 | -86.70758 | 1754 ft | 135 kts | 14° |
| 2026-05-06 19:23 | 36.07246 | -86.70412 | 1569 ft | 132 kts | 15° |
| 2026-05-06 19:23 | 36.08120 | -86.70060 | 1382 ft | 132 kts | 17° |
| 2026-05-06 19:23 | 36.08995 | -86.69725 | 1190 ft | 133 kts | 15° |
| 2026-05-06 19:23 | 36.09893 | -86.69380 | 999 ft | 134 kts | 16° |
| 2026-05-06 19:24 | 36.10770 | -86.69036 | 832 ft | 131 kts | 16° |
| 2026-05-06 19:24 | 36.11644 | -86.68696 | 643 ft | 132 kts | 16° |
| 2026-05-06 19:24 | 36.12208 | -86.68475 | 577 ft | 120 kts | 17° |
| 2026-05-06 19:24 | 36.13015 | -86.68159 | 576 ft | 59 kts | 18° |
| 2026-05-06 19:25 | 36.13240 | -86.68067 | 577 ft | 16 kts | 27° |
| 2026-05-06 19:25 | 36.13304 | -86.67953 | 577 ft | 15 kts | 60° |
| 2026-05-06 19:25 | 36.13285 | -86.67870 | 576 ft | 13 kts | 169° |
| 2026-05-06 19:25 | 36.13198 | -86.67902 | 575 ft | 13 kts | 198° |
| 2026-05-06 19:26 | 36.13113 | -86.67931 | 573 ft | 12 kts | 180° |
| 2026-05-06 19:26 | 36.13042 | -86.67854 | 574 ft | 16 kts | 132° |
| 2026-05-06 19:26 | 36.12990 | -86.67789 | 572 ft | 17 kts | 135° |
| 2026-05-06 19:26 | 36.12897 | -86.67668 | 571 ft | 20 kts | 134° |
| 2026-05-06 19:27 | 36.12803 | -86.67544 | 578 ft | 19 kts | 133° |
| 2026-05-06 19:27 | 36.12738 | -86.67415 | 574 ft | 18 kts | 75° |
| 2026-05-06 19:27 | 36.12830 | -86.67299 | 572 ft | 21 kts | 44° |
| 2026-05-06 19:27 | 36.12920 | -86.67272 | 571 ft | 15 kts | 321° |
| 2026-05-06 19:28 | 36.13013 | -86.67359 | 573 ft | 19 kts | 333° |
| 2026-05-06 19:28 | 36.13153 | -86.67374 | 569 ft | 21 kts | 5° |
| 2026-05-06 19:28 | 36.13297 | -86.67354 | 571 ft | 17 kts | 14° |
| 2026-05-06 19:28 | 36.13399 | -86.67299 | 576 ft | 16 kts | 52° |
| 2026-05-06 19:29 | 36.13385 | -86.67185 | 575 ft | 13 kts | 108° |
| 2026-05-06 19:29 | 36.13339 | -86.67142 | 569 ft | 8 kts | 200° |
| 2026-05-06 19:29 | 36.13319 | -86.67153 | 569 ft | 0 kts | 202° |